createdAt,value
2023-01-10T00:02:15.740Z,2.70
2023-01-10T00:04:44.532Z,2.20
2023-01-10T00:07:13.230Z,1.90
2023-01-10T00:09:42.020Z,2.60
2023-01-10T00:12:29.096Z,2.50
2023-01-10T00:14:57.958Z,2.40
2023-01-10T00:17:26.784Z,2.10
2023-01-10T00:19:55.567Z,2.30
2023-01-10T00:22:26.048Z,2.70
2023-01-10T00:24:54.822Z,2.20
2023-01-10T00:27:23.732Z,2.10
2023-01-10T00:29:52.814Z,2.40
2023-01-10T00:32:22.515Z,2.00
2023-01-10T00:34:51.306Z,2.80
2023-01-10T00:37:20.134Z,2.50
2023-01-10T00:39:48.929Z,2.40
2023-01-10T00:43:00.891Z,2.10
2023-01-10T00:45:29.674Z,2.40
2023-01-10T00:47:58.356Z,2.30
2023-01-10T00:50:27.151Z,2.50
2023-01-10T00:52:55.886Z,2.50
2023-01-10T00:55:24.613Z,2.40
2023-01-10T00:57:53.388Z,2.70
2023-01-10T01:00:22.210Z,2.60
2023-01-10T01:02:52.041Z,2.20
2023-01-10T01:05:21.731Z,2.60
2023-01-10T01:07:52.759Z,2.70
2023-01-10T01:10:27.589Z,2.70
2023-01-10T01:13:16.516Z,2.40
2023-01-10T01:15:46.019Z,2.30
2023-01-10T01:18:21.118Z,2.90
2023-01-10T01:20:55.365Z,2.40
2023-01-10T01:23:24.737Z,2.30
2023-01-10T01:25:54.748Z,3.10
2023-01-10T01:28:24.312Z,2.40
2023-01-10T01:30:53.264Z,2.70
2023-01-10T01:33:22.071Z,2.40
2023-01-10T01:35:50.973Z,3.20
2023-01-10T01:38:19.770Z,2.60
2023-01-10T01:40:48.590Z,2.70
2023-01-10T01:43:25.817Z,2.40
2023-01-10T01:45:56.175Z,2.10
2023-01-10T01:48:35.239Z,2.60
2023-01-10T01:51:20.940Z,2.20
2023-01-10T01:53:54.886Z,2.60
2023-01-10T01:56:31.518Z,2.20
2023-01-10T01:59:21.008Z,2.70
2023-01-10T02:01:55.854Z,2.40
2023-01-10T02:04:49.308Z,2.50
2023-01-10T02:07:18.579Z,2.60
2023-01-10T02:09:59.125Z,2.40
2023-01-10T02:12:30.446Z,2.70
2023-01-10T02:15:00.067Z,2.20
2023-01-10T02:17:28.840Z,2.30
2023-01-10T02:20:03.495Z,2.30
2023-01-10T02:23:00.233Z,2.60
2023-01-10T02:25:40.964Z,2.80
2023-01-10T02:29:00.231Z,2.90
2023-01-10T02:32:08.856Z,2.40
2023-01-10T02:35:15.660Z,2.60
2023-01-10T02:38:18.190Z,2.30
2023-01-10T02:41:02.470Z,2.60
2023-01-10T02:43:40.181Z,2.90
2023-01-10T02:46:28.615Z,3.50
2023-01-10T02:48:57.878Z,2.60
2023-01-10T02:51:30.509Z,2.70
2023-01-10T02:54:29.334Z,2.90
2023-01-10T02:57:15.341Z,2.60
2023-01-10T03:00:17.502Z,2.70
2023-01-10T03:03:27.962Z,2.70
2023-01-10T03:06:36.361Z,2.70
2023-01-10T03:09:21.644Z,3.20
2023-01-10T03:12:02.475Z,2.80
2023-01-10T03:14:33.452Z,2.80
2023-01-10T03:17:09.086Z,2.80
2023-01-10T03:20:01.430Z,2.90
2023-01-10T03:22:35.411Z,3.30
2023-01-10T03:25:07.378Z,3.20
2023-01-10T03:27:55.966Z,3.30
2023-01-10T03:30:40.126Z,3.10
2023-01-10T03:33:10.165Z,3.50
2023-01-10T03:36:10.231Z,3.30
2023-01-10T03:39:24.091Z,3.90
2023-01-10T03:43:12.473Z,3.80
2023-01-10T03:45:59.534Z,3.70
2023-01-10T03:48:34.345Z,3.30
2023-01-10T03:51:06.803Z,3.40
2023-01-10T03:53:38.509Z,3.80
2023-01-10T03:56:08.015Z,3.00
2023-01-10T03:58:36.717Z,3.40
2023-01-10T04:01:05.713Z,3.20
2023-01-10T04:03:34.610Z,3.70
2023-01-10T04:06:04.648Z,3.70
2023-01-10T04:08:33.440Z,4.00
2023-01-10T04:11:02.307Z,4.10
2023-01-10T04:13:31.019Z,4.00
2023-01-10T04:16:01.040Z,3.80
2023-01-10T04:18:29.894Z,3.80
2023-01-10T04:20:58.635Z,4.60
2023-01-10T04:23:27.373Z,4.00
2023-01-10T04:25:56.129Z,3.50
2023-01-10T04:28:24.931Z,3.50
2023-01-10T04:30:53.753Z,4.10
2023-01-10T04:33:22.643Z,4.00
2023-01-10T04:35:52.766Z,4.40
2023-01-10T04:38:21.874Z,4.10
2023-01-10T04:40:56.625Z,3.50
2023-01-10T04:43:26.286Z,4.20
2023-01-10T04:45:55.210Z,3.70
2023-01-10T04:48:24.021Z,3.90
2023-01-10T04:50:54.235Z,4.10
2023-01-10T04:53:23.249Z,3.50
2023-01-10T04:55:51.960Z,3.70
2023-01-10T04:58:20.753Z,4.10
2023-01-10T05:00:49.454Z,3.70
2023-01-10T05:03:20.470Z,4.00
2023-01-10T05:05:49.288Z,4.80
2023-01-10T05:08:18.112Z,4.60
2023-01-10T05:10:46.828Z,3.70
2023-01-10T05:13:15.581Z,4.30
2023-01-10T05:15:44.371Z,4.50
2023-01-10T05:18:13.087Z,4.70
2023-01-10T05:20:41.782Z,4.10
2023-01-10T05:23:10.542Z,4.50
2023-01-10T05:25:39.294Z,4.80
2023-01-10T05:28:08.071Z,4.00
2023-01-10T05:30:37.748Z,3.80
2023-01-10T05:33:06.503Z,3.30
2023-01-10T05:35:35.412Z,3.40
2023-01-10T05:38:04.463Z,3.90
2023-01-10T05:40:33.331Z,3.80
2023-01-10T05:43:02.112Z,3.80
2023-01-10T05:45:30.973Z,2.80
2023-01-10T05:47:59.739Z,3.80
2023-01-10T05:50:28.461Z,3.30
2023-01-10T05:55:34.900Z,3.20
2023-01-10T05:58:04.250Z,4.20
2023-01-10T06:00:32.984Z,3.40
2023-01-10T06:03:01.876Z,3.50
2023-01-10T06:05:30.630Z,4.00
2023-01-10T06:07:59.567Z,3.60
2023-01-10T06:10:28.651Z,3.20
2023-01-10T06:12:57.449Z,3.80
2023-01-10T06:15:26.804Z,3.30
2023-01-10T06:17:55.476Z,3.40
2023-01-10T06:20:24.381Z,4.00
2023-01-10T06:22:53.200Z,3.40
2023-01-10T06:25:22.047Z,3.30
2023-01-10T06:27:50.847Z,4.10
2023-01-10T06:30:19.847Z,3.00
2023-01-10T06:32:48.715Z,3.30
2023-01-10T06:35:18.338Z,3.20
2023-01-10T06:37:47.178Z,2.90
2023-01-10T06:40:16.411Z,3.80
2023-01-10T06:42:45.211Z,3.80
2023-01-10T06:45:13.898Z,3.90
2023-01-10T06:47:42.883Z,3.70
2023-01-10T06:50:13.373Z,3.30
2023-01-10T06:52:42.261Z,4.30
2023-01-10T06:55:11.179Z,4.40
2023-01-10T06:57:40.035Z,2.90
2023-01-10T07:00:12.093Z,4.00
2023-01-10T07:02:40.819Z,4.60
2023-01-10T07:05:11.457Z,4.10
2023-01-10T07:07:40.484Z,3.60
2023-01-10T07:10:10.330Z,3.50
2023-01-10T07:12:39.284Z,3.70
2023-01-10T07:15:09.078Z,4.90
2023-01-10T07:17:37.760Z,3.90
2023-01-10T07:20:07.369Z,3.90
2023-01-10T07:22:36.179Z,3.50
2023-01-10T07:25:06.472Z,3.10
2023-01-10T07:27:36.211Z,3.50
2023-01-10T07:30:05.761Z,3.80
2023-01-10T07:32:34.983Z,4.60
2023-01-10T07:35:04.143Z,4.50
2023-01-10T07:37:32.973Z,4.50
2023-01-10T07:40:01.750Z,3.90
2023-01-10T07:42:30.506Z,4.60
2023-01-10T07:44:59.185Z,4.80
2023-01-10T07:47:28.693Z,4.40
2023-01-10T07:49:57.420Z,4.50
2023-01-10T07:52:26.238Z,4.30
2023-01-10T07:54:55.092Z,5.10
2023-01-10T07:57:23.920Z,4.40
2023-01-10T07:59:52.637Z,4.10
2023-01-10T08:02:21.663Z,4.00
2023-01-10T08:04:50.532Z,4.40
2023-01-10T08:07:19.269Z,5.00
2023-01-10T08:09:48.097Z,4.70
2023-01-10T08:12:16.906Z,5.80
2023-01-10T08:14:45.839Z,4.10
2023-01-10T08:17:14.645Z,4.30
2023-01-10T08:19:44.759Z,4.60
2023-01-10T08:22:13.644Z,4.20
2023-01-10T08:24:42.369Z,3.80
2023-01-10T08:27:11.122Z,4.40
2023-01-10T08:29:39.810Z,4.50
2023-01-10T08:32:09.099Z,4.10
2023-01-10T08:34:38.093Z,3.90
2023-01-10T08:37:06.951Z,4.40
2023-01-10T08:39:35.967Z,3.90
2023-01-10T08:42:04.889Z,4.60
2023-01-10T08:44:33.613Z,4.50
2023-01-10T08:47:02.679Z,4.20
2023-01-10T08:49:31.428Z,5.90
2023-01-10T08:52:02.816Z,5.10
2023-01-10T08:54:31.582Z,5.10
2023-01-10T08:57:00.434Z,4.50
2023-01-10T08:59:29.492Z,5.10
2023-01-10T09:02:00.018Z,4.30
2023-01-10T09:04:32.790Z,5.30
2023-01-10T09:07:01.777Z,5.30
2023-01-10T09:09:30.655Z,4.50
2023-01-10T09:11:59.431Z,4.30
2023-01-10T09:14:28.242Z,3.70
2023-01-10T09:16:57.017Z,3.40
2023-01-10T09:19:25.736Z,3.60
2023-01-10T09:21:54.493Z,3.40
2023-01-10T09:24:23.575Z,3.40
2023-01-10T09:26:53.037Z,3.30
2023-01-10T09:29:21.984Z,3.30
2023-01-10T09:31:50.755Z,3.90
2023-01-10T09:34:19.500Z,3.60
2023-01-10T09:36:48.622Z,3.90
2023-01-10T09:39:17.358Z,3.50
2023-01-10T09:42:04.112Z,4.20
2023-01-10T09:44:50.939Z,3.70
2023-01-10T09:47:55.291Z,3.60
2023-01-10T09:50:41.982Z,3.10
2023-01-10T09:53:19.844Z,3.60
2023-01-10T09:55:58.270Z,3.90
2023-01-10T09:58:32.281Z,3.70
2023-01-10T10:01:07.842Z,3.20
2023-01-10T10:04:13.325Z,3.40
2023-01-10T10:06:42.174Z,3.80
2023-01-10T10:09:17.569Z,4.10
2023-01-10T10:12:43.844Z,3.70
2023-01-10T10:15:15.595Z,3.10
2023-01-10T10:18:18.217Z,3.10
2023-01-10T10:21:19.245Z,3.00
2023-01-10T10:23:58.100Z,3.30
2023-01-10T10:27:01.687Z,2.90
2023-01-10T10:29:43.120Z,3.20
2023-01-10T10:32:36.416Z,3.50
2023-01-10T10:35:15.679Z,2.80
2023-01-10T10:37:53.481Z,2.90
2023-01-10T10:40:28.374Z,3.30
2023-01-10T10:43:05.545Z,3.60
2023-01-10T10:45:42.121Z,3.60
2023-01-10T10:48:24.249Z,3.70
2023-01-10T10:51:05.005Z,3.60
2023-01-10T10:53:35.079Z,3.60
2023-01-10T10:56:07.527Z,3.90
2023-01-10T10:58:37.890Z,3.30
2023-01-10T11:01:06.939Z,3.90
2023-01-10T11:03:50.203Z,3.80
2023-01-10T11:06:20.505Z,3.90
2023-01-10T11:08:53.750Z,3.90
2023-01-10T11:11:29.009Z,3.60
2023-01-10T11:14:05.315Z,4.10
2023-01-10T11:16:40.164Z,4.40
2023-01-10T11:19:26.741Z,4.40
2023-01-10T11:22:03.736Z,4.50
2023-01-10T11:24:43.599Z,5.30
2023-01-10T11:27:21.795Z,5.00
2023-01-10T11:30:03.804Z,5.30
2023-01-10T11:32:40.652Z,5.30
2023-01-10T11:35:25.371Z,5.60
2023-01-10T11:38:24.984Z,5.60
2023-01-10T11:41:02.593Z,5.30
2023-01-10T11:43:40.783Z,5.30
2023-01-10T11:46:26.321Z,4.60
2023-01-10T11:49:11.147Z,5.30
2023-01-10T11:51:46.627Z,4.40
2023-01-10T11:54:23.876Z,4.30
2023-01-10T11:57:16.809Z,4.80
2023-01-10T12:00:04.275Z,5.00
2023-01-10T12:02:46.395Z,5.80
2023-01-10T12:05:23.723Z,4.70
2023-01-10T12:08:10.790Z,4.90
2023-01-10T12:10:39.635Z,5.30
2023-01-10T12:13:17.163Z,5.40
2023-01-10T12:15:47.246Z,6.50
2023-01-10T12:18:17.992Z,4.80
2023-01-10T12:20:53.326Z,4.90
2023-01-10T12:23:26.075Z,4.80
2023-01-10T12:26:10.666Z,4.40
2023-01-10T12:28:54.432Z,5.70
2023-01-10T12:31:24.348Z,5.10
2023-01-10T12:34:03.635Z,5.50
2023-01-10T12:36:50.226Z,4.80
2023-01-10T12:39:27.400Z,4.60
2023-01-10T12:42:26.440Z,5.20
2023-01-10T12:45:13.944Z,5.00
2023-01-10T12:47:57.565Z,5.00
2023-01-10T12:50:35.905Z,5.20
2023-01-10T12:53:29.206Z,4.60
2023-01-10T12:56:04.584Z,5.00
2023-01-10T12:58:58.276Z,4.50
2023-01-10T13:01:36.816Z,5.10
2023-01-10T13:04:18.202Z,4.90
2023-01-10T13:06:47.514Z,4.70
2023-01-10T13:09:31.518Z,4.10
2023-01-10T13:12:17.458Z,5.10
2023-01-10T13:15:02.409Z,5.30
2023-01-10T13:17:34.130Z,5.40
2023-01-10T13:20:40.763Z,4.90
2023-01-10T13:23:30.431Z,4.70
2023-01-10T13:26:09.487Z,5.30
2023-01-10T13:28:41.937Z,4.70
2023-01-10T13:31:44.630Z,4.90
2023-01-10T13:34:16.563Z,5.10
2023-01-10T13:37:11.725Z,4.90
2023-01-10T13:39:49.223Z,5.80
2023-01-10T13:43:01.461Z,5.50
2023-01-10T13:45:31.747Z,5.40
2023-01-10T13:48:03.554Z,5.30
2023-01-10T13:50:38.730Z,4.80
2023-01-10T13:53:08.742Z,5.70
2023-01-10T13:55:42.688Z,5.70
2023-01-10T13:58:14.402Z,5.00
2023-01-10T14:01:11.090Z,5.60
2023-01-10T14:03:52.524Z,5.30
2023-01-10T14:06:30.603Z,5.20
2023-01-10T14:09:25.766Z,5.60
2023-01-10T14:12:05.716Z,5.70
2023-01-10T14:14:41.741Z,5.40
2023-01-10T14:17:19.659Z,5.10
2023-01-10T14:20:16.265Z,5.10
2023-01-10T14:23:15.966Z,5.10
2023-01-10T14:25:46.427Z,4.80
2023-01-10T14:28:27.096Z,5.80
2023-01-10T14:31:19.869Z,5.30
2023-01-10T14:33:49.742Z,5.60
2023-01-10T14:36:31.672Z,4.80
2023-01-10T14:39:06.040Z,5.50
2023-01-10T14:41:43.622Z,5.00
2023-01-10T14:44:54.042Z,4.30
2023-01-10T14:47:35.741Z,4.70
2023-01-10T14:50:06.022Z,5.00
2023-01-10T14:52:34.986Z,4.30
2023-01-10T14:55:16.610Z,5.00
2023-01-10T14:57:58.682Z,5.70
2023-01-10T15:00:34.643Z,6.30
2023-01-10T15:03:04.611Z,6.50
2023-01-10T15:05:46.914Z,6.30
2023-01-10T15:08:22.937Z,6.20
2023-01-10T15:10:57.203Z,6.40
2023-01-10T15:13:28.535Z,6.60
2023-01-10T15:15:59.064Z,6.80
2023-01-10T15:18:43.500Z,8.00
2023-01-10T15:21:14.965Z,9.00
2023-01-10T15:23:46.598Z,8.40
2023-01-10T15:26:27.401Z,8.80
2023-01-10T15:29:24.028Z,8.60
2023-01-10T15:31:55.777Z,8.10
2023-01-10T15:34:30.009Z,8.10
2023-01-10T15:37:02.084Z,7.80
2023-01-10T15:39:35.930Z,7.80
2023-01-10T15:42:12.391Z,6.80
2023-01-10T15:44:55.558Z,7.10
2023-01-10T15:47:51.318Z,7.50
2023-01-10T15:50:39.171Z,8.20
2023-01-10T15:53:11.461Z,6.70
2023-01-10T15:55:51.244Z,7.40
2023-01-10T15:58:28.540Z,8.00
2023-01-10T16:00:59.985Z,6.90
2023-01-10T16:03:34.020Z,8.40
2023-01-10T16:06:09.101Z,7.00
2023-01-10T16:08:39.213Z,7.10
2023-01-10T16:11:42.032Z,7.70
2023-01-10T16:14:12.997Z,6.70
2023-01-10T16:16:41.917Z,6.70
2023-01-10T16:19:12.271Z,6.60
2023-01-10T16:21:46.370Z,7.80
2023-01-10T16:24:23.450Z,8.10
2023-01-10T16:26:52.688Z,7.30
2023-01-10T16:29:22.786Z,7.70
2023-01-10T16:31:54.593Z,7.70
2023-01-10T16:34:24.571Z,8.10
2023-01-10T16:36:53.911Z,7.80
2023-01-10T16:39:24.165Z,7.90
2023-01-10T16:42:11.165Z,8.60
2023-01-10T16:44:41.813Z,8.60
2023-01-10T16:47:10.463Z,7.80
2023-01-10T16:49:39.404Z,8.50
2023-01-10T16:52:14.495Z,8.50
2023-01-10T16:54:43.275Z,8.60
2023-01-10T16:57:13.213Z,8.30
2023-01-10T16:59:41.962Z,10.10
2023-01-10T17:02:19.422Z,9.30
2023-01-10T17:04:49.133Z,9.60
2023-01-10T17:07:18.046Z,9.40
2023-01-10T17:09:48.413Z,11.40
2023-01-10T17:12:20.107Z,10.20
2023-01-10T17:14:49.002Z,10.00
2023-01-10T17:17:18.030Z,12.00
2023-01-10T17:19:47.873Z,10.90
2023-01-10T17:22:16.819Z,9.60
2023-01-10T17:24:45.681Z,8.80
2023-01-10T17:27:14.737Z,7.80
2023-01-10T17:29:43.586Z,8.80
2023-01-10T17:32:13.092Z,9.50
2023-01-10T17:34:42.340Z,9.20
2023-01-10T17:37:12.090Z,8.50
2023-01-10T17:39:40.981Z,7.80
2023-01-10T17:42:09.845Z,9.00
2023-01-10T17:44:38.643Z,7.80
2023-01-10T17:47:07.427Z,8.20
2023-01-10T17:49:36.664Z,9.10
2023-01-10T17:52:05.480Z,8.60
2023-01-10T17:54:35.402Z,8.00
2023-01-10T17:57:05.995Z,8.20
2023-01-10T17:59:35.028Z,9.20
2023-01-10T18:02:04.043Z,9.90
2023-01-10T18:04:33.035Z,8.90
2023-01-10T18:07:02.341Z,9.20
2023-01-10T18:09:31.184Z,8.20
2023-01-10T18:11:59.973Z,8.90
2023-01-10T18:14:38.119Z,9.30
2023-01-10T18:17:12.562Z,9.00
2023-01-10T18:19:41.705Z,9.30
2023-01-10T18:22:30.070Z,9.20
2023-01-10T18:24:59.467Z,9.00
2023-01-10T18:27:28.535Z,8.50
2023-01-10T18:29:57.808Z,7.90
2023-01-10T18:32:26.652Z,8.60
2023-01-10T18:34:55.465Z,10.20
2023-01-10T18:37:24.296Z,10.30
2023-01-10T18:39:53.175Z,9.20
2023-01-10T18:42:22.207Z,8.30
2023-01-10T18:44:51.514Z,9.60
2023-01-10T18:47:20.491Z,9.10
2023-01-10T18:49:49.947Z,9.20
2023-01-10T18:52:21.202Z,8.80
2023-01-10T18:54:52.333Z,8.30
2023-01-10T18:57:22.056Z,9.00
2023-01-10T18:59:50.926Z,9.40
2023-01-10T19:02:20.610Z,9.20
2023-01-10T19:04:49.549Z,8.50
2023-01-10T19:07:25.097Z,9.00
2023-01-10T19:09:54.628Z,8.60
2023-01-10T19:12:24.183Z,8.40
2023-01-10T19:14:53.625Z,8.10
2023-01-10T19:17:25.299Z,8.30
2023-01-10T19:19:55.037Z,8.20
2023-01-10T19:22:23.754Z,8.60
2023-01-10T19:24:53.398Z,7.40
2023-01-10T19:27:22.245Z,7.80
2023-01-10T19:29:51.619Z,8.60
2023-01-10T19:32:20.259Z,8.80
2023-01-10T19:34:49.854Z,8.50
2023-01-10T19:37:19.338Z,8.30
2023-01-10T19:39:48.897Z,7.80
2023-01-10T19:42:17.670Z,8.50
2023-01-10T19:44:47.139Z,8.80
2023-01-10T19:47:16.010Z,8.10
2023-01-10T19:49:45.644Z,9.30
2023-01-10T19:52:15.214Z,8.00
2023-01-10T19:54:44.773Z,9.50
2023-01-10T19:57:13.535Z,8.50
2023-01-10T19:59:51.955Z,9.20
2023-01-10T20:02:20.779Z,9.00
2023-01-10T20:04:49.700Z,8.80
2023-01-10T20:07:18.839Z,9.60
2023-01-10T20:09:51.366Z,10.20
2023-01-10T20:12:20.228Z,9.30
2023-01-10T20:14:52.034Z,10.90
2023-01-10T20:17:21.091Z,8.70
2023-01-10T20:19:49.908Z,9.50
2023-01-10T20:22:18.685Z,10.10
2023-01-10T20:24:47.563Z,9.30
2023-01-10T20:27:16.434Z,9.50
2023-01-10T20:29:45.967Z,10.10
2023-01-10T20:32:17.463Z,9.70
2023-01-10T20:34:47.587Z,8.80
2023-01-10T20:37:16.503Z,10.40
2023-01-10T20:39:46.595Z,9.60
2023-01-10T20:42:15.331Z,9.70
2023-01-10T20:44:44.106Z,10.90
2023-01-10T20:47:12.964Z,9.30
2023-01-10T20:49:41.727Z,10.60
2023-01-10T20:52:10.550Z,12.10
2023-01-10T20:54:39.292Z,9.60
2023-01-10T20:57:08.081Z,10.20
2023-01-10T20:59:36.799Z,8.80
2023-01-10T21:02:05.700Z,10.10
2023-01-10T21:04:34.545Z,10.50
2023-01-10T21:07:03.788Z,10.90
2023-01-10T21:09:32.677Z,9.30
2023-01-10T21:12:17.409Z,9.60
2023-01-10T21:14:50.736Z,9.30
2023-01-10T21:17:19.845Z,11.90
2023-01-10T21:19:48.629Z,8.90
2023-01-10T21:22:17.432Z,10.30
2023-01-10T21:24:49.997Z,9.20
2023-01-10T21:27:18.902Z,9.70
2023-01-10T21:29:47.810Z,10.10
2023-01-10T21:32:16.637Z,9.10
2023-01-10T21:34:45.443Z,9.20
2023-01-10T21:37:14.667Z,9.10
2023-01-10T21:39:43.557Z,9.80
2023-01-10T21:42:30.832Z,9.40
2023-01-10T21:45:03.832Z,9.10
2023-01-10T21:47:34.444Z,9.40
2023-01-10T21:50:04.984Z,9.60
2023-01-10T21:52:33.772Z,10.60
2023-01-10T21:55:06.029Z,9.10
2023-01-10T21:57:34.967Z,9.00
2023-01-10T22:00:04.304Z,9.70
2023-01-10T22:02:42.559Z,7.60
2023-01-10T22:05:11.840Z,8.90
2023-01-10T22:07:41.132Z,9.90
2023-01-10T22:10:10.640Z,9.00
2023-01-10T22:12:39.398Z,8.00
2023-01-10T22:15:09.102Z,9.10
2023-01-10T22:17:37.911Z,8.40
2023-01-10T22:20:07.737Z,9.00
2023-01-10T22:22:38.167Z,9.30
2023-01-10T22:25:07.934Z,7.60
2023-01-10T22:27:36.827Z,9.50
2023-01-10T22:30:06.600Z,8.00
2023-01-10T22:32:35.960Z,8.90
2023-01-10T22:35:04.955Z,8.00
2023-01-10T22:37:33.763Z,8.30
2023-01-10T22:40:02.453Z,9.60
2023-01-10T22:42:31.319Z,9.00
2023-01-10T22:45:00.180Z,8.80
2023-01-10T22:47:29.069Z,9.00
2023-01-10T22:49:57.830Z,9.90
2023-01-10T22:52:26.569Z,9.20
2023-01-10T22:54:55.389Z,8.80
2023-01-10T22:57:24.190Z,10.20
2023-01-10T22:59:52.972Z,10.30
2023-01-10T23:02:21.794Z,10.00
2023-01-10T23:04:50.566Z,9.10
2023-01-10T23:07:19.313Z,9.80
2023-01-10T23:09:48.046Z,9.50
2023-01-10T23:12:17.283Z,8.30
2023-01-10T23:14:45.931Z,9.40
2023-01-10T23:17:14.583Z,8.50
2023-01-10T23:19:43.329Z,8.50
2023-01-10T23:22:12.031Z,9.50
2023-01-10T23:24:40.689Z,9.40
2023-01-10T23:27:09.437Z,8.60
2023-01-10T23:29:38.160Z,9.30
2023-01-10T23:32:07.102Z,9.60
2023-01-10T23:34:36.876Z,9.60
2023-01-10T23:37:05.644Z,8.70
2023-01-10T23:39:34.467Z,8.80
2023-01-10T23:42:03.243Z,8.50
2023-01-10T23:44:32.078Z,8.20
2023-01-10T23:47:01.038Z,9.00
2023-01-10T23:49:29.954Z,8.70
2023-01-10T23:51:58.655Z,8.10
2023-01-10T23:54:27.460Z,7.30
2023-01-10T23:56:56.172Z,8.70
2023-01-10T23:59:24.959Z,6.90
